Time;durP1;ratioP1;P1;durP2;ratioP2;P2;SDS_P1;SDS_P2;PMS_P1;PMS_P2;Temp;Humidity;BMP_temperature;BMP_pressure;BME280_temperature;BME280_humidity;BME280_pressure;Samples;Min_cycle;Max_cycle;Signal;HPM_P1;HPM_P2
2024/04/04 00:03:12;;;;;;;22.40;15.90;;;;;;;10.22;79.37;98113.55;435202;1251;100574;-41
2024/04/04 00:13:19;;;;;;;21.10;16.00;;;;;;;10.08;79.83;98108.07;435247;1256;108329;-41
2024/04/04 00:23:26;;;;;;;21.40;15.00;;;;;;;9.89;80.09;98102.58;435294;1251;99550;-41
2024/04/04 00:33:33;;;;;;;27.90;19.70;;;;;;;9.73;80.00;98099.44;435188;1256;113463;-41
2024/04/04 00:43:39;;;;;;;33.50;24.40;;;;;;;9.67;80.63;98102.48;435135;1255;107730;-41
2024/04/04 00:53:46;;;;;;;31.50;22.50;;;;;;;9.64;81.06;98105.92;435360;1256;100568;-39
2024/04/04 01:03:53;;;;;;;25.30;19.10;;;;;;;9.63;81.28;98110.96;435070;1256;108913;-41
2024/04/04 01:14:00;;;;;;;31.70;20.30;;;;;;;9.68;81.64;98114.73;435856;1252;99361;-40
2024/04/04 01:24:08;;;;;;;28.10;17.60;;;;;;;9.67;81.67;98111.41;435183;1255;113693;-40
2024/04/04 01:34:14;;;;;;;30.10;19.10;;;;;;;9.59;81.94;98105.46;435216;1256;107358;-41
2024/04/04 01:44:22;;;;;;;26.50;18.80;;;;;;;9.53;82.12;98098.91;435325;1255;99302;-39
2024/04/04 01:54:28;;;;;;;27.40;16.90;;;;;;;9.42;82.26;98096.84;435101;1255;108079;-42
2024/04/04 02:04:34;;;;;;;25.30;18.30;;;;;;;9.37;82.60;98101.14;434889;1256;100571;-39
2024/04/04 02:14:41;;;;;;;25.60;17.00;;;;;;;9.35;82.83;98094.13;435061;1251;112157;-41
2024/04/04 02:24:48;;;;;;;24.70;17.30;;;;;;;9.34;83.03;98096.38;435049;1256;107370;-40
2024/04/04 02:34:56;;;;;;;32.90;20.00;;;;;;;9.26;83.14;98090.01;435190;1256;99644;-40
2024/04/04 02:45:02;;;;;;;28.30;18.60;;;;;;;9.15;83.54;98092.73;435291;1251;109226;-41
2024/04/04 02:55:09;;;;;;;24.10;16.70;;;;;;;9.14;83.64;98078.05;435263;1255;100657;-41
2024/04/04 03:05:16;;;;;;;24.70;15.40;;;;;;;9.15;83.76;98079.13;435285;1251;112110;-41
2024/04/04 03:15:22;;;;;;;23.60;14.80;;;;;;;9.09;84.06;98072.56;435200;1251;108252;-41
2024/04/04 03:25:29;;;;;;;21.20;14.00;;;;;;;9.06;84.26;98065.55;435310;1256;99380;-40
2024/04/04 03:35:37;;;;;;;18.60;13.20;;;;;;;9.04;84.62;98060.39;435152;1256;107252;-41
2024/04/04 03:45:44;;;;;;;16.70;11.10;;;;;;;9.07;84.88;98073.80;435295;1252;100607;-40
2024/04/04 03:55:51;;;;;;;16.20;10.50;;;;;;;9.11;85.17;98081.78;435282;1255;112823;-41
2024/04/04 04:05:58;;;;;;;18.40;11.40;;;;;;;9.19;85.25;98090.05;435253;1256;109053;-40
2024/04/04 04:16:17;;;;;;;19.40;13.10;;;;;;;9.21;85.32;98096.34;435194;1251;100682;-40
2024/04/04 04:26:24;;;;;;;21.50;13.40;;;;;;;9.17;85.56;98094.98;435338;1253;107397;-41
2024/04/04 04:36:33;;;;;;;24.00;14.10;;;;;;;9.18;85.78;98099.92;435255;1256;99360;-42
2024/04/04 04:46:40;;;;;;;24.60;15.00;;;;;;;9.22;85.88;98112.14;435204;1256;112625;-40
2024/04/04 04:56:47;;;;;;;22.00;13.80;;;;;;;9.22;85.96;98109.42;435138;1256;108006;-41
2024/04/04 05:06:53;;;;;;;21.70;10.20;;;;;;;9.27;86.34;98110.70;435161;1253;100581;-40
2024/04/04 05:17:00;;;;;;;17.10;10.60;;;;;;;9.39;86.56;98115.79;435222;1256;108436;-40
2024/04/04 05:27:07;;;;;;;17.10;10.80;;;;;;;9.57;86.72;98117.45;435174;1253;100674;-40
2024/04/04 05:37:14;;;;;;;18.90;12.90;;;;;;;10.11;87.88;98113.22;434927;1256;358191;-40
2024/04/04 05:47:21;;;;;;;15.60;11.20;;;;;;;11.90;88.52;98113.45;435321;1256;108072;-40
2024/04/04 05:57:28;;;;;;;18.30;10.00;;;;;;;13.09;87.12;98109.80;435258;1256;100620;-41
2024/04/04 06:17:41;;;;;;;13.20;9.50;;;;;;;15.25;84.30;98115.30;435222;1253;99451;-41
2024/04/04 06:27:51;;;;;;;14.00;8.60;;;;;;;15.48;82.44;98121.55;435449;1255;113626;-39
2024/04/04 06:37:55;;;;;;;13.60;7.10;;;;;;;16.27;81.48;98125.85;435136;1253;107237;-40
2024/04/04 06:48:02;;;;;;;9.50;6.20;;;;;;;16.48;79.16;98127.34;435385;1253;100586;-40
2024/04/04 06:58:09;;;;;;;8.60;5.20;;;;;;;16.69;77.61;98130.21;435309;1256;107943;-40
2024/04/04 07:08:16;;;;;;;7.70;4.40;;;;;;;16.91;75.84;98127.83;435333;1256;99628;-41
2024/04/04 07:18:22;;;;;;;7.50;4.60;;;;;;;17.29;74.93;98142.32;435335;1253;112171;-40
2024/04/04 07:28:27;;;;;;;8.40;4.80;;;;;;;17.23;72.33;98155.04;435215;1256;107426;-39
2024/04/04 07:38:48;;;;;;;5.10;3.70;;;;;;;16.50;71.11;98156.14;435472;1253;99382;-39
2024/04/04 07:48:56;;;;;;;8.20;3.20;;;;;;;16.11;70.38;98162.13;435191;1256;107950;-41
2024/04/04 07:59:03;;;;;;;5.80;3.20;;;;;;;16.31;70.71;98156.48;435217;1256;100574;-39
2024/04/04 08:09:10;;;;;;;12.90;3.90;;;;;;;16.77;69.21;98163.30;435218;1256;110910;-41
2024/04/04 08:19:16;;;;;;;9.70;3.40;;;;;;;16.82;67.97;98164.75;435200;1264;108686;-40
2024/04/04 08:29:24;;;;;;;3.50;2.20;;;;;;;16.83;67.30;98169.92;435385;1251;100606;-39
2024/04/04 08:39:30;;;;;;;4.90;1.70;;;;;;;17.64;66.57;98163.94;435108;1254;108591;-40
2024/04/04 08:49:39;;;;;;;4.80;2.00;;;;;;;17.73;65.14;98159.77;435390;1256;100603;-40
2024/04/04 08:59:55;;;;;;;3.20;2.00;;;;;;;17.36;64.16;98158.16;435187;1253;112993;-40
2024/04/04 09:10:02;;;;;;;2.80;2.10;;;;;;;17.41;63.67;98163.18;435151;1251;107834;-40
2024/04/04 09:30:23;;;;;;;2.90;1.90;;;;;;;16.67;62.86;98166.86;435244;1256;107725;-41
2024/04/04 09:50:36;;;;;;;3.30;1.60;;;;;;;17.10;61.40;98159.40;435233;1256;114544;-40
2024/04/04 10:00:42;;;;;;;3.40;1.00;;;;;;;17.60;61.19;98153.18;435270;1251;107610;-40
2024/04/04 10:10:49;;;;;;;2.10;1.20;;;;;;;17.96;59.04;98164.23;435251;1251;100456;-40
2024/04/04 10:20:59;;;;;;;3.80;1.30;;;;;;;17.92;58.53;98163.95;435324;1257;107351;-41
2024/04/04 10:31:03;;;;;;;1.70;0.90;;;;;;;17.85;58.62;98155.60;435382;1256;99897;-39
2024/04/04 10:41:09;;;;;;;1.10;1.00;;;;;;;18.08;58.47;98160.90;435275;1257;112557;-41
2024/04/04 10:51:16;;;;;;;5.20;1.20;;;;;;;17.30;57.85;98165.70;435101;1256;109348;-41
2024/04/04 11:01:23;;;;;;;3.70;1.20;;;;;;;16.77;58.04;98173.61;435251;1257;99257;-42
2024/04/04 11:11:30;;;;;;;1.20;1.00;;;;;;;16.69;58.05;98164.27;435199;1260;108191;-41
2024/04/04 11:21:37;;;;;;;2.10;1.20;;;;;;;17.15;58.76;98158.23;435201;1256;100626;-40
2024/04/04 11:31:43;;;;;;;2.70;1.70;;;;;;;17.46;57.25;98168.78;435273;1256;112396;-41
2024/04/04 11:41:51;;;;;;;3.80;1.40;;;;;;;17.30;57.18;98171.80;435140;1271;108605;-39
2024/04/04 11:51:58;;;;;;;4.90;1.60;;;;;;;17.03;57.06;98173.84;435258;1256;101097;-42
2024/04/04 12:02:05;;;;;;;5.40;1.50;;;;;;;16.94;57.50;98174.95;435175;1264;108572;-39
2024/04/04 12:22:18;;;;;;;4.40;1.20;;;;;;;16.49;57.34;98188.70;435345;1257;113499;-41
2024/04/04 12:32:25;;;;;;;1.60;0.90;;;;;;;16.39;57.14;98183.29;435243;1257;108297;-41
2024/04/04 12:42:31;;;;;;;1.20;1.10;;;;;;;16.61;57.47;98169.61;435146;1251;99377;-40
2024/04/04 12:52:38;;;;;;;2.40;1.10;;;;;;;16.74;57.49;98169.10;435255;1257;108394;-41
2024/04/04 13:02:46;;;;;;;0.90;0.90;;;;;;;16.46;57.66;98172.92;435246;1256;99689;-40
2024/04/04 13:12:52;;;;;;;3.80;1.80;;;;;;;16.37;58.45;98183.24;435318;1258;114379;-40
2024/04/04 13:33:04;;;;;;;5.70;1.50;;;;;;;16.08;58.86;98182.95;435235;1251;100583;-41
2024/04/04 13:43:11;;;;;;;5.10;1.40;;;;;;;15.70;59.50;98179.05;435208;1263;108712;-41
2024/04/04 13:53:17;;;;;;;3.00;1.00;;;;;;;15.85;60.50;98155.61;435215;1263;99385;-42
2024/04/04 14:03:24;;;;;;;1.80;1.40;;;;;;;16.46;60.40;98128.36;435154;1257;114378;-41
2024/04/04 14:13:31;;;;;;;3.20;1.20;;;;;;;16.27;60.20;98134.07;435090;1255;109341;-41
2024/04/04 14:23:37;;;;;;;0.70;0.70;;;;;;;16.10;60.16;98119.90;435300;1251;100528;-40
2024/04/04 14:33:44;;;;;;;1.40;1.20;;;;;;;16.28;60.11;98112.96;435196;1251;107489;-40
2024/04/04 14:53:57;;;;;;;1.80;0.90;;;;;;;16.59;59.47;98111.02;435291;1251;112834;-40
2024/04/04 15:04:04;;;;;;;2.90;0.90;;;;;;;16.64;58.66;98103.67;435131;1254;107797;-40
2024/04/04 15:14:13;;;;;;;2.30;1.70;;;;;;;16.46;58.88;98107.33;435216;1257;100631;-40
2024/04/04 15:24:20;;;;;;;2.00;1.00;;;;;;;16.43;59.03;98106.72;434995;1251;108332;-41
2024/04/04 15:34:26;;;;;;;1.60;1.10;;;;;;;16.45;58.83;98105.58;435210;1251;100642;-41
2024/04/04 15:44:33;;;;;;;1.90;0.70;;;;;;;16.22;58.58;98100.16;435136;1256;113505;-41
2024/04/04 15:54:40;;;;;;;4.20;1.70;;;;;;;16.05;58.50;98099.22;435079;1256;108444;-43
2024/04/04 16:14:52;;;;;;;3.30;2.00;;;;;;;15.55;58.14;98098.23;435260;1258;107042;-41
2024/04/04 16:24:58;;;;;;;6.60;2.50;;;;;;;15.35;58.42;98109.20;435206;1256;99321;-41
2024/04/04 16:35:05;;;;;;;7.10;3.60;;;;;;;15.13;58.29;98104.16;435257;1257;113701;-41
2024/04/04 16:45:12;;;;;;;7.00;4.00;;;;;;;14.97;58.44;98108.89;435269;1251;107778;-42
2024/04/04 17:25:38;;;;;;;13.20;6.00;;;;;;;14.14;60.16;98093.30;435270;1252;112262;-42
2024/04/04 17:35:59;;;;;;;7.70;4.80;;;;;;;13.97;60.60;98096.48;435206;1256;107388;-41
2024/04/04 17:46:04;;;;;;;16.10;8.60;;;;;;;13.88;61.05;98097.05;435003;1256;503297;-40
2024/04/04 17:56:11;;;;;;;18.70;10.00;;;;;;;13.77;61.53;98093.38;435144;1256;107557;-41
2024/04/04 18:26:31;;;;;;;13.50;7.10;;;;;;;13.64;62.52;98114.92;435167;1255;106659;-42
2024/04/04 18:36:38;;;;;;;14.90;6.60;;;;;;;13.69;62.67;98107.64;435167;1255;100597;-41
2024/04/04 18:46:44;;;;;;;10.90;5.80;;;;;;;13.71;62.67;98109.02;435061;1253;109406;-41
2024/04/04 18:56:51;;;;;;;7.10;3.90;;;;;;;13.78;62.71;98097.53;435104;1258;100581;-40
2024/04/04 19:17:05;;;;;;;5.40;2.70;;;;;;;13.80;63.09;98094.49;435058;1256;108648;-41
2024/04/04 19:27:12;;;;;;;2.20;1.90;;;;;;;13.84;63.30;98088.55;435128;1256;100613;-41
2024/04/04 19:37:18;;;;;;;8.50;3.40;;;;;;;13.88;63.71;98089.56;435209;1256;107773;-40
2024/04/04 19:47:25;;;;;;;9.20;2.80;;;;;;;13.81;64.06;98092.64;435032;1251;99679;-41
2024/04/04 19:57:33;;;;;;;5.20;2.40;;;;;;;13.74;64.38;98097.31;435151;1256;113188;-41
2024/04/04 20:07:40;;;;;;;5.20;3.40;;;;;;;13.65;64.72;98098.60;435165;1256;108383;-42
2024/04/04 20:17:47;;;;;;;5.50;2.30;;;;;;;13.61;65.03;98107.59;435109;1256;99391;-41
2024/04/04 20:27:53;;;;;;;2.00;1.60;;;;;;;13.60;65.51;98107.63;435175;1256;107493;-41
2024/04/04 20:38:00;;;;;;;2.60;1.50;;;;;;;13.53;66.03;98110.80;435239;1254;100600;-41
2024/04/04 20:48:13;;;;;;;6.80;2.20;;;;;;;13.42;66.55;98114.52;435125;1256;113712;-41
2024/04/04 21:08:28;;;;;;;4.00;1.50;;;;;;;13.19;67.49;98117.88;434984;1253;100584;-41
2024/04/04 21:18:36;;;;;;;2.50;0.90;;;;;;;13.16;68.41;98120.87;434876;1255;108376;-43
2024/04/04 21:28:44;;;;;;;3.80;1.20;;;;;;;13.07;68.86;98133.63;435100;1256;100601;-40
2024/04/04 21:38:51;;;;;;;6.80;1.20;;;;;;;12.94;69.47;98137.04;435306;1253;115220;-41
2024/04/04 21:48:59;;;;;;;1.20;0.80;;;;;;;12.85;70.15;98149.73;435039;1256;107941;-41
2024/04/04 21:59:07;;;;;;;1.70;1.20;;;;;;;12.81;70.94;98153.37;435160;1256;100591;-41
2024/04/04 22:09:14;;;;;;;3.20;1.60;;;;;;;12.73;71.20;98150.54;435280;1256;109501;-42
2024/04/04 22:19:21;;;;;;;4.90;1.40;;;;;;;12.65;71.49;98148.53;435106;1251;100606;-40
2024/04/04 22:29:26;;;;;;;2.60;1.60;;;;;;;12.60;71.87;98154.77;435185;1251;113332;-41
2024/04/04 22:39:33;;;;;;;4.10;1.60;;;;;;;12.53;72.33;98152.05;435168;1256;110740;-42
2024/04/04 22:49:40;;;;;;;4.70;1.80;;;;;;;12.37;72.67;98150.27;435220;1252;100585;-41
2024/04/04 22:59:46;;;;;;;4.00;2.00;;;;;;;12.21;73.32;98150.71;435036;1256;108446;-40
2024/04/04 23:09:54;;;;;;;2.40;1.90;;;;;;;12.08;73.95;98163.39;435112;1256;100570;-41
2024/04/04 23:20:01;;;;;;;2.40;1.40;;;;;;;12.03;74.40;98159.71;435084;1256;113286;-41
2024/04/04 23:30:10;;;;;;;2.80;1.70;;;;;;;11.93;74.95;98166.83;435007;1251;108232;-41
2024/04/04 23:40:15;;;;;;;4.60;2.10;;;;;;;11.94;75.51;98161.64;435278;1251;100610;-40
2024/04/04 23:50:22;;;;;;;2.90;1.40;;;;;;;11.86;76.23;98166.48;435308;1254;107638;-41
